sensor_id;sensor_type;location;lat;lon;timestamp;temperature;humidity
68217;DHT22;55037;52.354;4.992;2022-11-12T00:00:43;9.10;92.50
68217;DHT22;55037;52.354;4.992;2022-11-12T00:03:29;9.10;92.50
68217;DHT22;55037;52.354;4.992;2022-11-12T00:06:14;9.10;92.40
68217;DHT22;55037;52.354;4.992;2022-11-12T00:09:00;9.00;92.50
68217;DHT22;55037;52.354;4.992;2022-11-12T00:11:49;9.00;92.50
68217;DHT22;55037;52.354;4.992;2022-11-12T00:14:35;9.00;92.60
68217;DHT22;55037;52.354;4.992;2022-11-12T00:17:21;8.90;92.70
68217;DHT22;55037;52.354;4.992;2022-11-12T00:20:07;8.90;92.40
68217;DHT22;55037;52.354;4.992;2022-11-12T00:22:54;8.90;92.70
68217;DHT22;55037;52.354;4.992;2022-11-12T00:25:39;8.90;92.70
68217;DHT22;55037;52.354;4.992;2022-11-12T00:28:25;9.00;92.70
68217;DHT22;55037;52.354;4.992;2022-11-12T00:31:12;8.90;92.70
68217;DHT22;55037;52.354;4.992;2022-11-12T00:33:58;8.90;92.60
68217;DHT22;55037;52.354;4.992;2022-11-12T00:36:44;8.90;92.60
68217;DHT22;55037;52.354;4.992;2022-11-12T00:39:29;8.90;92.60
68217;DHT22;55037;52.354;4.992;2022-11-12T00:42:15;8.80;92.70
68217;DHT22;55037;52.354;4.992;2022-11-12T00:45:01;8.80;92.80
68217;DHT22;55037;52.354;4.992;2022-11-12T00:47:47;8.80;92.80
68217;DHT22;55037;52.354;4.992;2022-11-12T00:50:33;8.80;92.90
68217;DHT22;55037;52.354;4.992;2022-11-12T00:53:18;8.80;92.90
68217;DHT22;55037;52.354;4.992;2022-11-12T00:56:05;8.80;92.90
68217;DHT22;55037;52.354;4.992;2022-11-12T00:58:51;8.80;92.60
68217;DHT22;55037;52.354;4.992;2022-11-12T01:01:38;8.80;93.00
68217;DHT22;55037;52.354;4.992;2022-11-12T01:04:24;8.80;93.20
68217;DHT22;55037;52.354;4.992;2022-11-12T01:07:10;9.00;93.30
68217;DHT22;55037;52.354;4.992;2022-11-12T01:09:55;9.20;92.80
68217;DHT22;55037;52.354;4.992;2022-11-12T01:12:41;9.20;93.10
68217;DHT22;55037;52.354;4.992;2022-11-12T01:15:27;9.30;92.90
68217;DHT22;55037;52.354;4.992;2022-11-12T01:18:13;9.40;92.70
68217;DHT22;55037;52.354;4.992;2022-11-12T01:21:03;9.50;92.70
68217;DHT22;55037;52.354;4.992;2022-11-12T01:23:50;9.60;92.50
68217;DHT22;55037;52.354;4.992;2022-11-12T01:26:36;9.60;92.40
68217;DHT22;55037;52.354;4.992;2022-11-12T01:29:22;9.60;92.40
68217;DHT22;55037;52.354;4.992;2022-11-12T01:32:08;9.60;92.50
68217;DHT22;55037;52.354;4.992;2022-11-12T01:34:54;9.70;92.60
68217;DHT22;55037;52.354;4.992;2022-11-12T01:37:40;9.80;92.50
68217;DHT22;55037;52.354;4.992;2022-11-12T01:40:25;9.90;92.30
68217;DHT22;55037;52.354;4.992;2022-11-12T01:43:12;9.90;92.20
68217;DHT22;55037;52.354;4.992;2022-11-12T01:46:01;10.00;92.30
68217;DHT22;55037;52.354;4.992;2022-11-12T01:48:52;10.10;92.20
68217;DHT22;55037;52.354;4.992;2022-11-12T01:51:42;10.10;92.10
68217;DHT22;55037;52.354;4.992;2022-11-12T01:54:30;10.10;91.90
68217;DHT22;55037;52.354;4.992;2022-11-12T01:57:19;10.20;91.90
68217;DHT22;55037;52.354;4.992;2022-11-12T02:00:10;10.10;92.00
68217;DHT22;55037;52.354;4.992;2022-11-12T02:02:59;10.20;92.10
68217;DHT22;55037;52.354;4.992;2022-11-12T02:05:48;10.10;92.20
68217;DHT22;55037;52.354;4.992;2022-11-12T02:08:39;10.20;92.30
68217;DHT22;55037;52.354;4.992;2022-11-12T02:11:25;10.20;92.30
68217;DHT22;55037;52.354;4.992;2022-11-12T02:14:11;10.20;92.30
68217;DHT22;55037;52.354;4.992;2022-11-12T02:16:58;10.20;92.40
68217;DHT22;55037;52.354;4.992;2022-11-12T02:19:46;10.20;92.40
68217;DHT22;55037;52.354;4.992;2022-11-12T02:22:31;10.30;92.20
68217;DHT22;55037;52.354;4.992;2022-11-12T02:25:20;11.80;92.50
68217;DHT22;55037;52.354;4.992;2022-11-12T02:28:07;10.20;92.20
68217;DHT22;55037;52.354;4.992;2022-11-12T02:30:53;10.30;92.20
68217;DHT22;55037;52.354;4.992;2022-11-12T02:33:40;10.30;92.20
68217;DHT22;55037;52.354;4.992;2022-11-12T02:36:26;10.20;92.00
68217;DHT22;55037;52.354;4.992;2022-11-12T02:39:12;10.20;92.00
68217;DHT22;55037;52.354;4.992;2022-11-12T02:41:58;10.10;92.20
68217;DHT22;55037;52.354;4.992;2022-11-12T02:44:43;10.10;92.30
68217;DHT22;55037;52.354;4.992;2022-11-12T02:47:29;10.10;92.20
68217;DHT22;55037;52.354;4.992;2022-11-12T02:50:15;10.10;92.20
68217;DHT22;55037;52.354;4.992;2022-11-12T02:53:01;10.10;92.30
68217;DHT22;55037;52.354;4.992;2022-11-12T02:55:47;10.10;92.30
68217;DHT22;55037;52.354;4.992;2022-11-12T02:58:33;10.10;92.00
68217;DHT22;55037;52.354;4.992;2022-11-12T03:01:19;10.10;92.30
68217;DHT22;55037;52.354;4.992;2022-11-12T03:04:05;10.00;92.30
68217;DHT22;55037;52.354;4.992;2022-11-12T03:06:51;10.10;92.40
68217;DHT22;55037;52.354;4.992;2022-11-12T03:09:37;10.10;92.50
68217;DHT22;55037;52.354;4.992;2022-11-12T03:12:23;10.10;92.30
68217;DHT22;55037;52.354;4.992;2022-11-12T03:15:09;10.20;92.30
68217;DHT22;55037;52.354;4.992;2022-11-12T03:17:56;10.20;91.90
68217;DHT22;55037;52.354;4.992;2022-11-12T03:20:42;10.10;92.20
68217;DHT22;55037;52.354;4.992;2022-11-12T03:23:28;10.20;92.60
68217;DHT22;55037;52.354;4.992;2022-11-12T03:26:14;10.20;92.10
68217;DHT22;55037;52.354;4.992;2022-11-12T03:28:59;10.20;92.10
68217;DHT22;55037;52.354;4.992;2022-11-12T03:31:45;10.10;92.10
68217;DHT22;55037;52.354;4.992;2022-11-12T03:34:31;10.10;92.20
68217;DHT22;55037;52.354;4.992;2022-11-12T03:37:17;10.00;92.10
68217;DHT22;55037;52.354;4.992;2022-11-12T03:40:03;9.90;92.10
68217;DHT22;55037;52.354;4.992;2022-11-12T03:42:50;9.90;92.20
68217;DHT22;55037;52.354;4.992;2022-11-12T03:45:36;9.90;92.40
68217;DHT22;55037;52.354;4.992;2022-11-12T03:48:22;9.90;92.50
68217;DHT22;55037;52.354;4.992;2022-11-12T03:51:08;9.90;92.50
68217;DHT22;55037;52.354;4.992;2022-11-12T03:53:56;9.90;92.50
68217;DHT22;55037;52.354;4.992;2022-11-12T03:56:42;9.90;92.60
68217;DHT22;55037;52.354;4.992;2022-11-12T03:59:28;9.90;92.70
68217;DHT22;55037;52.354;4.992;2022-11-12T04:02:14;9.90;92.70
68217;DHT22;55037;52.354;4.992;2022-11-12T04:04:59;9.90;92.70
68217;DHT22;55037;52.354;4.992;2022-11-12T04:08:07;10.00;92.70
68217;DHT22;55037;52.354;4.992;2022-11-12T04:11:14;11.00;93.00
68217;DHT22;55037;52.354;4.992;2022-11-12T04:14:00;10.10;92.80
68217;DHT22;55037;52.354;4.992;2022-11-12T04:16:46;10.20;92.70
68217;DHT22;55037;52.354;4.992;2022-11-12T04:19:50;10.20;92.40
68217;DHT22;55037;52.354;4.992;2022-11-12T04:22:55;10.00;92.40
68217;DHT22;55037;52.354;4.992;2022-11-12T04:25:41;10.00;92.60
68217;DHT22;55037;52.354;4.992;2022-11-12T04:28:45;10.00;92.60
68217;DHT22;55037;52.354;4.992;2022-11-12T04:31:49;10.00;93.10
68217;DHT22;55037;52.354;4.992;2022-11-12T04:34:35;10.00;92.70
68217;DHT22;55037;52.354;4.992;2022-11-12T04:37:22;10.00;92.70
68217;DHT22;55037;52.354;4.992;2022-11-12T04:40:29;10.00;92.70
68217;DHT22;55037;52.354;4.992;2022-11-12T04:43:33;10.00;92.80
68217;DHT22;55037;52.354;4.992;2022-11-12T04:46:37;10.00;92.80
68217;DHT22;55037;52.354;4.992;2022-11-12T04:49:23;10.00;92.80
68217;DHT22;55037;52.354;4.992;2022-11-12T04:52:09;10.10;92.80
68217;DHT22;55037;52.354;4.992;2022-11-12T04:54:55;10.10;92.80
68217;DHT22;55037;52.354;4.992;2022-11-12T04:57:41;10.10;92.70
68217;DHT22;55037;52.354;4.992;2022-11-12T05:00:27;10.10;92.70
68217;DHT22;55037;52.354;4.992;2022-11-12T05:03:13;10.10;92.60
68217;DHT22;55037;52.354;4.992;2022-11-12T05:06:00;10.00;92.70
68217;DHT22;55037;52.354;4.992;2022-11-12T05:08:46;10.00;92.80
68217;DHT22;55037;52.354;4.992;2022-11-12T05:11:32;10.00;92.80
68217;DHT22;55037;52.354;4.992;2022-11-12T05:14:18;9.90;92.90
68217;DHT22;55037;52.354;4.992;2022-11-12T05:17:04;9.90;92.80
68217;DHT22;55037;52.354;4.992;2022-11-12T05:19:50;9.90;93.10
68217;DHT22;55037;52.354;4.992;2022-11-12T05:22:36;9.90;93.20
68217;DHT22;55037;52.354;4.992;2022-11-12T05:25:34;10.00;93.20
68217;DHT22;55037;52.354;4.992;2022-11-12T05:28:19;12.20;93.70
68217;DHT22;55037;52.354;4.992;2022-11-12T05:31:05;10.00;93.20
68217;DHT22;55037;52.354;4.992;2022-11-12T05:33:51;10.10;93.20
68217;DHT22;55037;52.354;4.992;2022-11-12T05:36:37;10.00;93.10
68217;DHT22;55037;52.354;4.992;2022-11-12T05:39:23;10.10;93.20
68217;DHT22;55037;52.354;4.992;2022-11-12T05:42:11;10.10;93.30
68217;DHT22;55037;52.354;4.992;2022-11-12T05:44:59;10.10;93.20
68217;DHT22;55037;52.354;4.992;2022-11-12T05:47:45;10.00;92.90
68217;DHT22;55037;52.354;4.992;2022-11-12T05:50:31;9.90;93.20
68217;DHT22;55037;52.354;4.992;2022-11-12T05:53:29;9.90;93.20
68217;DHT22;55037;52.354;4.992;2022-11-12T05:56:15;9.50;93.30
68217;DHT22;55037;52.354;4.992;2022-11-12T05:59:03;9.90;93.50
68217;DHT22;55037;52.354;4.992;2022-11-12T06:01:49;10.00;93.50
68217;DHT22;55037;52.354;4.992;2022-11-12T06:04:35;10.00;93.30
68217;DHT22;55037;52.354;4.992;2022-11-12T06:07:21;10.10;93.50
68217;DHT22;55037;52.354;4.992;2022-11-12T06:10:07;10.10;93.50
68217;DHT22;55037;52.354;4.992;2022-11-12T06:12:53;10.20;93.60
68217;DHT22;55037;52.354;4.992;2022-11-12T06:15:39;10.30;93.40
68217;DHT22;55037;52.354;4.992;2022-11-12T06:18:24;10.30;93.30
68217;DHT22;55037;52.354;4.992;2022-11-12T06:21:11;10.30;93.20
68217;DHT22;55037;52.354;4.992;2022-11-12T06:24:09;10.40;93.20
68217;DHT22;55037;52.354;4.992;2022-11-12T06:26:54;10.40;93.10
68217;DHT22;55037;52.354;4.992;2022-11-12T06:29:40;10.40;92.80
68217;DHT22;55037;52.354;4.992;2022-11-12T06:32:26;10.40;93.10
68217;DHT22;55037;52.354;4.992;2022-11-12T06:35:12;10.50;93.10
68217;DHT22;55037;52.354;4.992;2022-11-12T06:37:58;10.50;92.90
68217;DHT22;55037;52.354;4.992;2022-11-12T06:40:44;10.50;92.70
68217;DHT22;55037;52.354;4.992;2022-11-12T06:43:31;10.50;92.60
68217;DHT22;55037;52.354;4.992;2022-11-12T06:46:17;10.50;92.50
68217;DHT22;55037;52.354;4.992;2022-11-12T06:49:03;10.40;92.40
68217;DHT22;55037;52.354;4.992;2022-11-12T06:51:49;10.30;92.40
68217;DHT22;55037;52.354;4.992;2022-11-12T06:54:35;10.20;92.40
68217;DHT22;55037;52.354;4.992;2022-11-12T06:57:21;10.20;92.40
68217;DHT22;55037;52.354;4.992;2022-11-12T07:00:07;10.20;92.20
68217;DHT22;55037;52.354;4.992;2022-11-12T07:02:56;10.10;92.40
68217;DHT22;55037;52.354;4.992;2022-11-12T07:05:42;10.10;92.30
68217;DHT22;55037;52.354;4.992;2022-11-12T07:08:28;10.00;92.30
68217;DHT22;55037;52.354;4.992;2022-11-12T07:11:17;9.90;92.80
68217;DHT22;55037;52.354;4.992;2022-11-12T07:14:06;9.90;92.40
68217;DHT22;55037;52.354;4.992;2022-11-12T07:16:52;9.90;92.50
68217;DHT22;55037;52.354;4.992;2022-11-12T07:19:38;9.80;91.90
68217;DHT22;55037;52.354;4.992;2022-11-12T07:22:24;9.80;92.30
68217;DHT22;55037;52.354;4.992;2022-11-12T07:25:10;9.80;92.40
68217;DHT22;55037;52.354;4.992;2022-11-12T07:27:56;9.70;92.40
68217;DHT22;55037;52.354;4.992;2022-11-12T07:30:42;9.80;92.40
68217;DHT22;55037;52.354;4.992;2022-11-12T07:33:28;9.80;92.50
68217;DHT22;55037;52.354;4.992;2022-11-12T07:36:16;9.90;92.50
68217;DHT22;55037;52.354;4.992;2022-11-12T07:39:02;10.00;92.30
68217;DHT22;55037;52.354;4.992;2022-11-12T07:41:48;10.00;92.10
68217;DHT22;55037;52.354;4.992;2022-11-12T07:44:36;10.10;92.10
68217;DHT22;55037;52.354;4.992;2022-11-12T07:47:21;10.10;92.00
68217;DHT22;55037;52.354;4.992;2022-11-12T07:50:08;10.10;91.90
68217;DHT22;55037;52.354;4.992;2022-11-12T07:52:57;10.20;91.90
68217;DHT22;55037;52.354;4.992;2022-11-12T07:55:51;10.30;91.50
68217;DHT22;55037;52.354;4.992;2022-11-12T07:58:37;10.20;91.20
68217;DHT22;55037;52.354;4.992;2022-11-12T08:01:31;10.30;91.30
68217;DHT22;55037;52.354;4.992;2022-11-12T08:04:17;10.30;91.30
68217;DHT22;55037;52.354;4.992;2022-11-12T08:07:03;10.40;91.00
68217;DHT22;55037;52.354;4.992;2022-11-12T08:09:49;10.40;90.80
68217;DHT22;55037;52.354;4.992;2022-11-12T08:12:35;10.30;90.50
68217;DHT22;55037;52.354;4.992;2022-11-12T08:15:21;10.20;90.60
68217;DHT22;55037;52.354;4.992;2022-11-12T08:18:06;10.20;90.60
68217;DHT22;55037;52.354;4.992;2022-11-12T08:20:59;10.10;90.90
68217;DHT22;55037;52.354;4.992;2022-11-12T08:23:45;10.20;91.00
68217;DHT22;55037;52.354;4.992;2022-11-12T08:26:31;10.50;91.30
68217;DHT22;55037;52.354;4.992;2022-11-12T08:29:17;10.80;90.90
68217;DHT22;55037;52.354;4.992;2022-11-12T08:32:03;11.10;90.00
68217;DHT22;55037;52.354;4.992;2022-11-12T08:34:49;11.10;88.50
68217;DHT22;55037;52.354;4.992;2022-11-12T08:37:35;11.00;87.10
68217;DHT22;55037;52.354;4.992;2022-11-12T08:40:20;10.90;88.10
68217;DHT22;55037;52.354;4.992;2022-11-12T08:43:08;11.10;88.60
68217;DHT22;55037;52.354;4.992;2022-11-12T08:45:56;11.40;87.30
68217;DHT22;55037;52.354;4.992;2022-11-12T08:48:42;11.80;86.00
68217;DHT22;55037;52.354;4.992;2022-11-12T08:51:28;13.90;87.20
68217;DHT22;55037;52.354;4.992;2022-11-12T08:54:14;13.80;79.80
68217;DHT22;55037;52.354;4.992;2022-11-12T08:57:00;14.20;76.10
68217;DHT22;55037;52.354;4.992;2022-11-12T08:59:45;14.30;74.20
68217;DHT22;55037;52.354;4.992;2022-11-12T09:02:31;13.90;74.70
68217;DHT22;55037;52.354;4.992;2022-11-12T09:05:17;13.90;76.10
68217;DHT22;55037;52.354;4.992;2022-11-12T09:08:15;18.60;65.70
68217;DHT22;55037;52.354;4.992;2022-11-12T09:11:02;18.90;65.60
68217;DHT22;55037;52.354;4.992;2022-11-12T09:13:51;22.20;51.40
68217;DHT22;55037;52.354;4.992;2022-11-12T09:16:37;24.40;43.30
68217;DHT22;55037;52.354;4.992;2022-11-12T09:19:22;25.80;40.00
68217;DHT22;55037;52.354;4.992;2022-11-12T09:22:08;27.40;35.60
68217;DHT22;55037;52.354;4.992;2022-11-12T09:24:54;28.40;34.70
68217;DHT22;55037;52.354;4.992;2022-11-12T09:27:40;30.30;30.90
68217;DHT22;55037;52.354;4.992;2022-11-12T09:30:34;31.10;28.30
68217;DHT22;55037;52.354;4.992;2022-11-12T09:33:26;31.20;27.40
68217;DHT22;55037;52.354;4.992;2022-11-12T09:36:12;31.10;27.30
68217;DHT22;55037;52.354;4.992;2022-11-12T09:38:58;31.10;26.40
68217;DHT22;55037;52.354;4.992;2022-11-12T09:41:44;30.60;27.00
68217;DHT22;55037;52.354;4.992;2022-11-12T09:44:31;30.30;27.10
68217;DHT22;55037;52.354;4.992;2022-11-12T09:50:27;31.10;26.10
68217;DHT22;55037;52.354;4.992;2022-11-12T09:53:25;31.50;25.80
68217;DHT22;55037;52.354;4.992;2022-11-12T09:56:18;31.30;25.40
68217;DHT22;55037;52.354;4.992;2022-11-12T09:59:10;30.40;26.00
68217;DHT22;55037;52.354;4.992;2022-11-12T10:05:24;30.60;26.10
68217;DHT22;55037;52.354;4.992;2022-11-12T10:08:35;31.30;25.50
68217;DHT22;55037;52.354;4.992;2022-11-12T10:11:32;32.80;24.30
68217;DHT22;55037;52.354;4.992;2022-11-12T10:21:16;33.80;22.70
68217;DHT22;55037;52.354;4.992;2022-11-12T10:24:10;34.10;22.80
68217;DHT22;55037;52.354;4.992;2022-11-12T10:26:56;34.70;22.60
68217;DHT22;55037;52.354;4.992;2022-11-12T10:32:33;34.30;21.90
68217;DHT22;55037;52.354;4.992;2022-11-12T10:35:22;34.10;22.70
68217;DHT22;55037;52.354;4.992;2022-11-12T10:38:15;33.40;22.60
68217;DHT22;55037;52.354;4.992;2022-11-12T10:41:17;32.40;23.50
68217;DHT22;55037;52.354;4.992;2022-11-12T10:44:05;31.40;24.30
68217;DHT22;55037;52.354;4.992;2022-11-12T10:47:22;30.50;25.50
68217;DHT22;55037;52.354;4.992;2022-11-12T10:53:32;31.40;24.80
68217;DHT22;55037;52.354;4.992;2022-11-12T10:56:27;32.40;24.10
68217;DHT22;55037;52.354;4.992;2022-11-12T10:59:20;33.30;23.30
68217;DHT22;55037;52.354;4.992;2022-11-12T11:02:15;33.50;22.80
68217;DHT22;55037;52.354;4.992;2022-11-12T11:05:26;34.30;22.30
68217;DHT22;55037;52.354;4.992;2022-11-12T11:08:13;35.00;22.10
68217;DHT22;55037;52.354;4.992;2022-11-12T11:11:19;35.80;20.60
68217;DHT22;55037;52.354;4.992;2022-11-12T11:17:17;34.60;21.60
68217;DHT22;55037;52.354;4.992;2022-11-12T11:20:04;34.50;21.30
68217;DHT22;55037;52.354;4.992;2022-11-12T11:23:24;33.70;22.10
68217;DHT22;55037;52.354;4.992;2022-11-12T11:29:54;35.30;21.20
68217;DHT22;55037;52.354;4.992;2022-11-12T11:36:17;35.00;21.00
68217;DHT22;55037;52.354;4.992;2022-11-12T11:45:16;35.40;20.60
68217;DHT22;55037;52.354;4.992;2022-11-12T11:51:11;35.60;20.60
68217;DHT22;55037;52.354;4.992;2022-11-12T11:57:14;36.20;20.20
68217;DHT22;55037;52.354;4.992;2022-11-12T12:00:17;36.80;19.80
68217;DHT22;55037;52.354;4.992;2022-11-12T12:03:17;37.60;19.90
68217;DHT22;55037;52.354;4.992;2022-11-12T12:12:01;39.20;18.00
68217;DHT22;55037;52.354;4.992;2022-11-12T12:18:05;38.50;18.50
68217;DHT22;55037;52.354;4.992;2022-11-12T12:21:15;38.80;18.30
68217;DHT22;55037;52.354;4.992;2022-11-12T12:24:14;38.70;18.20
68217;DHT22;55037;52.354;4.992;2022-11-12T12:27:10;38.80;18.40
68217;DHT22;55037;52.354;4.992;2022-11-12T12:30:23;39.10;18.20
68217;DHT22;55037;52.354;4.992;2022-11-12T12:36:20;38.60;18.20
68217;DHT22;55037;52.354;4.992;2022-11-12T12:42:16;36.60;19.40
68217;DHT22;55037;52.354;4.992;2022-11-12T12:45:22;35.70;20.30
68217;DHT22;55037;52.354;4.992;2022-11-12T12:48:16;36.00;20.40
68217;DHT22;55037;52.354;4.992;2022-11-12T12:51:03;37.00;19.80
68217;DHT22;55037;52.354;4.992;2022-11-12T12:53:49;38.10;18.90
68217;DHT22;55037;52.354;4.992;2022-11-12T12:56:45;38.30;18.70
68217;DHT22;55037;52.354;4.992;2022-11-12T12:59:31;37.50;19.00
68217;DHT22;55037;52.354;4.992;2022-11-12T13:02:22;37.50;19.10
68217;DHT22;55037;52.354;4.992;2022-11-12T13:05:23;37.40;19.20
68217;DHT22;55037;52.354;4.992;2022-11-12T13:08:12;37.30;19.50
68217;DHT22;55037;52.354;4.992;2022-11-12T13:11:03;38.10;19.10
68217;DHT22;55037;52.354;4.992;2022-11-12T13:13:48;39.00;18.00
68217;DHT22;55037;52.354;4.992;2022-11-12T13:25:30;38.10;18.40
68217;DHT22;55037;52.354;4.992;2022-11-12T13:28:16;37.80;18.50
68217;DHT22;55037;52.354;4.992;2022-11-12T13:31:03;37.50;18.80
68217;DHT22;55037;52.354;4.992;2022-11-12T13:33:48;37.30;19.00
68217;DHT22;55037;52.354;4.992;2022-11-12T13:36:34;37.40;18.80
68217;DHT22;55037;52.354;4.992;2022-11-12T13:39:21;37.00;19.00
68217;DHT22;55037;52.354;4.992;2022-11-12T13:42:12;36.50;19.30
68217;DHT22;55037;52.354;4.992;2022-11-12T13:45:24;36.10;19.60
68217;DHT22;55037;52.354;4.992;2022-11-12T13:48:37;36.10;19.50
68217;DHT22;55037;52.354;4.992;2022-11-12T13:51:36;36.00;19.70
68217;DHT22;55037;52.354;4.992;2022-11-12T13:54:33;35.90;19.80
68217;DHT22;55037;52.354;4.992;2022-11-12T14:03:05;35.30;20.60
68217;DHT22;55037;52.354;4.992;2022-11-12T14:05:52;35.00;20.90
68217;DHT22;55037;52.354;4.992;2022-11-12T14:09:10;33.80;21.50
68217;DHT22;55037;52.354;4.992;2022-11-12T14:12:17;32.80;22.90
68217;DHT22;55037;52.354;4.992;2022-11-12T14:21:26;31.40;24.90
68217;DHT22;55037;52.354;4.992;2022-11-12T14:24:12;30.00;26.10
68217;DHT22;55037;52.354;4.992;2022-11-12T14:26:58;28.50;28.30
68217;DHT22;55037;52.354;4.992;2022-11-12T14:29:44;27.90;29.90
68217;DHT22;55037;52.354;4.992;2022-11-12T14:32:38;27.70;30.20
68217;DHT22;55037;52.354;4.992;2022-11-12T14:38:16;27.10;30.80
68217;DHT22;55037;52.354;4.992;2022-11-12T14:41:09;26.70;31.60
68217;DHT22;55037;52.354;4.992;2022-11-12T14:43:57;26.10;32.70
68217;DHT22;55037;52.354;4.992;2022-11-12T14:46:57;25.70;34.50
68217;DHT22;55037;52.354;4.992;2022-11-12T14:49:46;25.20;34.80
68217;DHT22;55037;52.354;4.992;2022-11-12T14:52:38;24.90;35.00
68217;DHT22;55037;52.354;4.992;2022-11-12T14:55:31;24.60;35.60
68217;DHT22;55037;52.354;4.992;2022-11-12T14:58:19;24.20;36.70
68217;DHT22;55037;52.354;4.992;2022-11-12T15:01:18;23.80;37.60
68217;DHT22;55037;52.354;4.992;2022-11-12T15:04:24;23.30;38.70
68217;DHT22;55037;52.354;4.992;2022-11-12T15:07:26;22.80;40.20
68217;DHT22;55037;52.354;4.992;2022-11-12T15:10:38;22.40;41.40
68217;DHT22;55037;52.354;4.992;2022-11-12T15:13:25;22.00;42.60
68217;DHT22;55037;52.354;4.992;2022-11-12T15:16:24;21.60;43.80
68217;DHT22;55037;52.354;4.992;2022-11-12T15:19:20;21.10;44.90
68217;DHT22;55037;52.354;4.992;2022-11-12T15:22:18;20.90;46.40
68217;DHT22;55037;52.354;4.992;2022-11-12T15:25:21;20.70;47.60
68217;DHT22;55037;52.354;4.992;2022-11-12T15:28:12;20.00;49.30
68217;DHT22;55037;52.354;4.992;2022-11-12T15:31:21;19.90;50.30
68217;DHT22;55037;52.354;4.992;2022-11-12T15:37:27;19.20;54.20
68217;DHT22;55037;52.354;4.992;2022-11-12T15:40:19;18.80;55.60
68217;DHT22;55037;52.354;4.992;2022-11-12T15:43:12;18.40;57.50
68217;DHT22;55037;52.354;4.992;2022-11-12T15:46:00;17.90;59.40
68217;DHT22;55037;52.354;4.992;2022-11-12T15:48:46;17.40;61.00
68217;DHT22;55037;52.354;4.992;2022-11-12T15:51:40;17.00;62.40
68217;DHT22;55037;52.354;4.992;2022-11-12T15:54:26;16.70;63.70
68217;DHT22;55037;52.354;4.992;2022-11-12T15:57:21;16.30;65.00
68217;DHT22;55037;52.354;4.992;2022-11-12T16:00:19;16.00;65.30
68217;DHT22;55037;52.354;4.992;2022-11-12T16:03:16;15.80;67.00
68217;DHT22;55037;52.354;4.992;2022-11-12T16:06:03;15.50;67.80
68217;DHT22;55037;52.354;4.992;2022-11-12T16:08:53;15.30;68.70
68217;DHT22;55037;52.354;4.992;2022-11-12T16:11:39;15.10;69.60
68217;DHT22;55037;52.354;4.992;2022-11-12T16:14:26;14.90;70.40
68217;DHT22;55037;52.354;4.992;2022-11-12T16:17:14;14.70;70.80
68217;DHT22;55037;52.354;4.992;2022-11-12T16:20:00;14.60;71.20
68217;DHT22;55037;52.354;4.992;2022-11-12T16:22:49;14.50;71.70
68217;DHT22;55037;52.354;4.992;2022-11-12T16:25:37;14.40;71.90
68217;DHT22;55037;52.354;4.992;2022-11-12T16:28:22;14.30;72.40
68217;DHT22;55037;52.354;4.992;2022-11-12T16:31:08;14.20;73.00
68217;DHT22;55037;52.354;4.992;2022-11-12T16:33:54;14.10;73.30
68217;DHT22;55037;52.354;4.992;2022-11-12T16:36:40;14.00;73.50
68217;DHT22;55037;52.354;4.992;2022-11-12T16:39:26;12.80;74.00
68217;DHT22;55037;52.354;4.992;2022-11-12T16:42:12;13.90;75.40
68217;DHT22;55037;52.354;4.992;2022-11-12T16:44:58;13.80;75.40
68217;DHT22;55037;52.354;4.992;2022-11-12T16:47:46;13.80;75.40
68217;DHT22;55037;52.354;4.992;2022-11-12T16:50:32;13.70;75.80
68217;DHT22;55037;52.354;4.992;2022-11-12T16:53:18;13.60;76.00
68217;DHT22;55037;52.354;4.992;2022-11-12T16:56:10;13.60;76.20
68217;DHT22;55037;52.354;4.992;2022-11-12T16:58:56;13.50;76.50
68217;DHT22;55037;52.354;4.992;2022-11-12T17:01:42;13.50;76.80
68217;DHT22;55037;52.354;4.992;2022-11-12T17:04:28;13.40;77.40
68217;DHT22;55037;52.354;4.992;2022-11-12T17:07:14;13.40;78.10
68217;DHT22;55037;52.354;4.992;2022-11-12T17:10:01;13.30;77.60
68217;DHT22;55037;52.354;4.992;2022-11-12T17:12:48;13.30;78.70
68217;DHT22;55037;52.354;4.992;2022-11-12T17:15:33;13.20;78.90
68217;DHT22;55037;52.354;4.992;2022-11-12T17:18:19;13.10;79.10
68217;DHT22;55037;52.354;4.992;2022-11-12T17:21:07;13.10;80.00
68217;DHT22;55037;52.354;4.992;2022-11-12T17:23:54;13.10;80.30
68217;DHT22;55037;52.354;4.992;2022-11-12T17:26:40;13.10;80.30
68217;DHT22;55037;52.354;4.992;2022-11-12T17:29:26;13.00;80.20
68217;DHT22;55037;52.354;4.992;2022-11-12T17:32:12;13.00;80.40
68217;DHT22;55037;52.354;4.992;2022-11-12T17:35:00;12.90;80.30
68217;DHT22;55037;52.354;4.992;2022-11-12T17:37:46;12.90;80.60
68217;DHT22;55037;52.354;4.992;2022-11-12T17:40:31;12.90;80.80
68217;DHT22;55037;52.354;4.992;2022-11-12T17:43:17;12.90;80.90
68217;DHT22;55037;52.354;4.992;2022-11-12T17:46:05;12.80;80.70
68217;DHT22;55037;52.354;4.992;2022-11-12T17:48:51;12.80;80.40
68217;DHT22;55037;52.354;4.992;2022-11-12T17:51:37;12.70;81.00
68217;DHT22;55037;52.354;4.992;2022-11-12T17:54:23;12.70;81.30
68217;DHT22;55037;52.354;4.992;2022-11-12T17:57:09;12.70;81.30
68217;DHT22;55037;52.354;4.992;2022-11-12T17:59:55;12.60;81.10
68217;DHT22;55037;52.354;4.992;2022-11-12T18:02:41;12.60;81.40
68217;DHT22;55037;52.354;4.992;2022-11-12T18:05:27;12.50;81.70
68217;DHT22;55037;52.354;4.992;2022-11-12T18:08:13;12.50;82.20
68217;DHT22;55037;52.354;4.992;2022-11-12T18:10:59;12.60;82.40
68217;DHT22;55037;52.354;4.992;2022-11-12T18:13:45;12.60;82.40
68217;DHT22;55037;52.354;4.992;2022-11-12T18:16:30;12.60;82.30
68217;DHT22;55037;52.354;4.992;2022-11-12T18:19:16;12.60;82.10
68217;DHT22;55037;52.354;4.992;2022-11-12T18:22:02;12.60;81.80
68217;DHT22;55037;52.354;4.992;2022-11-12T18:24:48;12.60;81.60
68217;DHT22;55037;52.354;4.992;2022-11-12T18:27:34;12.70;81.30
68217;DHT22;55037;52.354;4.992;2022-11-12T18:30:20;12.70;81.00
68217;DHT22;55037;52.354;4.992;2022-11-12T18:33:06;12.70;80.80
68217;DHT22;55037;52.354;4.992;2022-11-12T18:36:03;12.60;80.60
68217;DHT22;55037;52.354;4.992;2022-11-12T18:38:50;12.70;80.70
68217;DHT22;55037;52.354;4.992;2022-11-12T18:41:36;12.60;80.60
68217;DHT22;55037;52.354;4.992;2022-11-12T18:44:22;12.60;80.50
68217;DHT22;55037;52.354;4.992;2022-11-12T18:47:10;12.60;80.30
68217;DHT22;55037;52.354;4.992;2022-11-12T18:49:56;12.60;80.30
68217;DHT22;55037;52.354;4.992;2022-11-12T18:52:42;12.60;80.70
68217;DHT22;55037;52.354;4.992;2022-11-12T18:55:28;12.50;80.80
68217;DHT22;55037;52.354;4.992;2022-11-12T18:58:14;12.50;81.00
68217;DHT22;55037;52.354;4.992;2022-11-12T19:01:20;12.50;81.00
68217;DHT22;55037;52.354;4.992;2022-11-12T19:04:09;12.40;80.90
68217;DHT22;55037;52.354;4.992;2022-11-12T19:06:55;12.40;80.90
68217;DHT22;55037;52.354;4.992;2022-11-12T19:09:41;12.40;80.00
68217;DHT22;55037;52.354;4.992;2022-11-12T19:12:27;12.50;81.00
68217;DHT22;55037;52.354;4.992;2022-11-12T19:15:13;12.50;81.10